sensor_id;sensor_type;location;lat;lon;timestamp;P1;durP1;ratioP1;P2;durP2;ratioP2
5869;SDS011;2961;47.702;9.410;2022-09-09T00:00:17;3.60;;;1.87;;
5869;SDS011;2961;47.702;9.410;2022-09-09T00:02:48;2.67;;;1.70;;
5869;SDS011;2961;47.702;9.410;2022-09-09T00:05:23;3.13;;;1.73;;
5869;SDS011;2961;47.702;9.410;2022-09-09T00:07:58;2.10;;;1.33;;
5869;SDS011;2961;47.702;9.410;2022-09-09T00:10:32;6.10;;;2.00;;
5869;SDS011;2961;47.702;9.410;2022-09-09T00:13:06;2.47;;;1.83;;
5869;SDS011;2961;47.702;9.410;2022-09-09T00:15:43;5.07;;;1.60;;
5869;SDS011;2961;47.702;9.410;2022-09-09T00:18:21;4.67;;;1.67;;
5869;SDS011;2961;47.702;9.410;2022-09-09T00:20:55;5.40;;;1.67;;
5869;SDS011;2961;47.702;9.410;2022-09-09T00:23:28;2.93;;;1.30;;
5869;SDS011;2961;47.702;9.410;2022-09-09T00:26:04;7.83;;;1.80;;
5869;SDS011;2961;47.702;9.410;2022-09-09T00:28:37;1.77;;;1.77;;
5869;SDS011;2961;47.702;9.410;2022-09-09T00:31:11;5.60;;;2.33;;
5869;SDS011;2961;47.702;9.410;2022-09-09T00:33:40;7.13;;;1.67;;
5869;SDS011;2961;47.702;9.410;2022-09-09T00:36:09;4.10;;;2.10;;
5869;SDS011;2961;47.702;9.410;2022-09-09T00:38:41;1.70;;;1.33;;
5869;SDS011;2961;47.702;9.410;2022-09-09T00:41:14;2.90;;;2.07;;
5869;SDS011;2961;47.702;9.410;2022-09-09T00:43:51;10.83;;;2.17;;
5869;SDS011;2961;47.702;9.410;2022-09-09T00:46:32;9.10;;;2.17;;
5869;SDS011;2961;47.702;9.410;2022-09-09T00:49:18;2.00;;;1.60;;
5869;SDS011;2961;47.702;9.410;2022-09-09T00:51:54;4.80;;;1.63;;
5869;SDS011;2961;47.702;9.410;2022-09-09T00:54:38;2.90;;;1.40;;
5869;SDS011;2961;47.702;9.410;2022-09-09T00:57:17;1.63;;;1.53;;
5869;SDS011;2961;47.702;9.410;2022-09-09T00:59:55;3.70;;;1.97;;
5869;SDS011;2961;47.702;9.410;2022-09-09T01:02:26;3.33;;;1.97;;
5869;SDS011;2961;47.702;9.410;2022-09-09T01:04:57;5.70;;;1.87;;
5869;SDS011;2961;47.702;9.410;2022-09-09T01:07:31;3.03;;;2.00;;
5869;SDS011;2961;47.702;9.410;2022-09-09T01:09:59;2.60;;;1.83;;
5869;SDS011;2961;47.702;9.410;2022-09-09T01:12:33;1.63;;;1.53;;
5869;SDS011;2961;47.702;9.410;2022-09-09T01:15:08;6.27;;;1.73;;
5869;SDS011;2961;47.702;9.410;2022-09-09T01:17:40;5.37;;;1.87;;
5869;SDS011;2961;47.702;9.410;2022-09-09T01:20:20;3.60;;;1.70;;
5869;SDS011;2961;47.702;9.410;2022-09-09T01:23:04;1.77;;;1.70;;
5869;SDS011;2961;47.702;9.410;2022-09-09T01:26:04;5.40;;;1.80;;
5869;SDS011;2961;47.702;9.410;2022-09-09T01:28:37;8.67;;;2.00;;
5869;SDS011;2961;47.702;9.410;2022-09-09T01:31:06;5.07;;;2.17;;
5869;SDS011;2961;47.702;9.410;2022-09-09T01:33:37;5.17;;;1.73;;
5869;SDS011;2961;47.702;9.410;2022-09-09T01:36:04;3.43;;;2.20;;
5869;SDS011;2961;47.702;9.410;2022-09-09T01:38:35;2.40;;;1.93;;
5869;SDS011;2961;47.702;9.410;2022-09-09T01:41:04;7.33;;;2.30;;
5869;SDS011;2961;47.702;9.410;2022-09-09T01:43:31;1.87;;;1.77;;
5869;SDS011;2961;47.702;9.410;2022-09-09T01:45:58;2.00;;;1.90;;
5869;SDS011;2961;47.702;9.410;2022-09-09T01:48:27;6.13;;;2.30;;
5869;SDS011;2961;47.702;9.410;2022-09-09T01:50:54;2.83;;;1.83;;
5869;SDS011;2961;47.702;9.410;2022-09-09T01:53:21;6.00;;;1.80;;
5869;SDS011;2961;47.702;9.410;2022-09-09T01:55:56;2.40;;;1.63;;
5869;SDS011;2961;47.702;9.410;2022-09-09T01:58:34;4.80;;;2.77;;
5869;SDS011;2961;47.702;9.410;2022-09-09T02:01:12;2.80;;;2.60;;
5869;SDS011;2961;47.702;9.410;2022-09-09T02:03:49;1.90;;;1.73;;
5869;SDS011;2961;47.702;9.410;2022-09-09T02:06:23;3.17;;;1.90;;
5869;SDS011;2961;47.702;9.410;2022-09-09T02:08:55;4.50;;;2.27;;
5869;SDS011;2961;47.702;9.410;2022-09-09T02:11:25;5.00;;;2.10;;
5869;SDS011;2961;47.702;9.410;2022-09-09T02:13:56;2.50;;;1.77;;
5869;SDS011;2961;47.702;9.410;2022-09-09T02:16:28;5.53;;;2.03;;
5869;SDS011;2961;47.702;9.410;2022-09-09T02:19:01;1.90;;;1.80;;
5869;SDS011;2961;47.702;9.410;2022-09-09T02:21:32;1.60;;;1.60;;
5869;SDS011;2961;47.702;9.410;2022-09-09T02:24:02;9.47;;;2.07;;
5869;SDS011;2961;47.702;9.410;2022-09-09T02:26:33;3.27;;;2.30;;
5869;SDS011;2961;47.702;9.410;2022-09-09T02:29:03;11.57;;;2.40;;
5869;SDS011;2961;47.702;9.410;2022-09-09T02:31:34;4.40;;;2.70;;
5869;SDS011;2961;47.702;9.410;2022-09-09T02:34:02;5.13;;;2.17;;
5869;SDS011;2961;47.702;9.410;2022-09-09T02:36:32;3.00;;;1.83;;
5869;SDS011;2961;47.702;9.410;2022-09-09T02:39:02;2.90;;;2.00;;
5869;SDS011;2961;47.702;9.410;2022-09-09T02:41:31;10.50;;;2.53;;
5869;SDS011;2961;47.702;9.410;2022-09-09T02:44:00;2.90;;;2.60;;
5869;SDS011;2961;47.702;9.410;2022-09-09T02:46:32;4.73;;;1.90;;
5869;SDS011;2961;47.702;9.410;2022-09-09T02:49:09;3.80;;;1.97;;
5869;SDS011;2961;47.702;9.410;2022-09-09T02:51:45;6.67;;;2.20;;
5869;SDS011;2961;47.702;9.410;2022-09-09T02:54:21;10.57;;;2.33;;
5869;SDS011;2961;47.702;9.410;2022-09-09T02:56:56;5.67;;;2.30;;
5869;SDS011;2961;47.702;9.410;2022-09-09T02:59:34;2.20;;;2.10;;
5869;SDS011;2961;47.702;9.410;2022-09-09T03:02:02;16.13;;;2.70;;
5869;SDS011;2961;47.702;9.410;2022-09-09T03:04:29;3.17;;;2.40;;
5869;SDS011;2961;47.702;9.410;2022-09-09T03:06:57;3.87;;;2.63;;
5869;SDS011;2961;47.702;9.410;2022-09-09T03:09:24;4.53;;;2.87;;
5869;SDS011;2961;47.702;9.410;2022-09-09T03:11:51;8.00;;;2.70;;
5869;SDS011;2961;47.702;9.410;2022-09-09T03:14:20;4.53;;;2.37;;
5869;SDS011;2961;47.702;9.410;2022-09-09T03:16:49;4.13;;;2.30;;
5869;SDS011;2961;47.702;9.410;2022-09-09T03:19:17;11.10;;;1.90;;
5869;SDS011;2961;47.702;9.410;2022-09-09T03:21:44;4.43;;;1.93;;
5869;SDS011;2961;47.702;9.410;2022-09-09T03:24:12;17.27;;;2.63;;
5869;SDS011;2961;47.702;9.410;2022-09-09T03:26:39;1.90;;;1.80;;
5869;SDS011;2961;47.702;9.410;2022-09-09T03:29:06;5.07;;;2.93;;
5869;SDS011;2961;47.702;9.410;2022-09-09T03:31:33;9.20;;;2.17;;
5869;SDS011;2961;47.702;9.410;2022-09-09T03:34:00;10.60;;;2.20;;
5869;SDS011;2961;47.702;9.410;2022-09-09T03:36:29;10.10;;;2.90;;
5869;SDS011;2961;47.702;9.410;2022-09-09T03:38:56;2.30;;;2.00;;
5869;SDS011;2961;47.702;9.410;2022-09-09T03:41:24;2.43;;;2.23;;
5869;SDS011;2961;47.702;9.410;2022-09-09T03:43:52;4.60;;;2.60;;
5869;SDS011;2961;47.702;9.410;2022-09-09T03:46:19;12.50;;;2.30;;
5869;SDS011;2961;47.702;9.410;2022-09-09T03:48:47;7.63;;;2.10;;
5869;SDS011;2961;47.702;9.410;2022-09-09T03:51:13;2.60;;;2.40;;
5869;SDS011;2961;47.702;9.410;2022-09-09T03:53:42;2.33;;;1.87;;
5869;SDS011;2961;47.702;9.410;2022-09-09T03:56:09;6.33;;;2.03;;
5869;SDS011;2961;47.702;9.410;2022-09-09T03:58:36;3.43;;;2.10;;
5869;SDS011;2961;47.702;9.410;2022-09-09T04:01:04;6.40;;;2.67;;
5869;SDS011;2961;47.702;9.410;2022-09-09T04:03:33;7.67;;;2.23;;
5869;SDS011;2961;47.702;9.410;2022-09-09T04:06:00;3.57;;;1.90;;
5869;SDS011;2961;47.702;9.410;2022-09-09T04:08:28;4.30;;;2.40;;
5869;SDS011;2961;47.702;9.410;2022-09-09T04:10:57;2.27;;;2.10;;
5869;SDS011;2961;47.702;9.410;2022-09-09T04:13:26;8.40;;;2.80;;
5869;SDS011;2961;47.702;9.410;2022-09-09T04:15:54;7.97;;;2.43;;
5869;SDS011;2961;47.702;9.410;2022-09-09T04:18:22;3.70;;;2.30;;
5869;SDS011;2961;47.702;9.410;2022-09-09T04:20:51;15.33;;;2.33;;
5869;SDS011;2961;47.702;9.410;2022-09-09T04:23:18;10.53;;;2.70;;
5869;SDS011;2961;47.702;9.410;2022-09-09T04:25:45;5.93;;;1.80;;
5869;SDS011;2961;47.702;9.410;2022-09-09T04:28:14;2.10;;;2.00;;
5869;SDS011;2961;47.702;9.410;2022-09-09T04:30:42;8.57;;;1.80;;
5869;SDS011;2961;47.702;9.410;2022-09-09T04:33:10;2.60;;;2.43;;
5869;SDS011;2961;47.702;9.410;2022-09-09T04:38:23;2.77;;;2.37;;
5869;SDS011;2961;47.702;9.410;2022-09-09T04:41:04;2.00;;;1.83;;
5869;SDS011;2961;47.702;9.410;2022-09-09T04:43:32;3.90;;;2.50;;
5869;SDS011;2961;47.702;9.410;2022-09-09T04:45:59;2.73;;;2.40;;
5869;SDS011;2961;47.702;9.410;2022-09-09T04:48:26;3.13;;;2.83;;
5869;SDS011;2961;47.702;9.410;2022-09-09T04:50:53;6.47;;;2.40;;
5869;SDS011;2961;47.702;9.410;2022-09-09T04:53:21;4.83;;;3.23;;
5869;SDS011;2961;47.702;9.410;2022-09-09T04:55:48;3.80;;;2.43;;
5869;SDS011;2961;47.702;9.410;2022-09-09T04:58:15;2.37;;;2.20;;
5869;SDS011;2961;47.702;9.410;2022-09-09T05:00:43;3.20;;;2.33;;
5869;SDS011;2961;47.702;9.410;2022-09-09T05:03:10;2.77;;;2.57;;
5869;SDS011;2961;47.702;9.410;2022-09-09T05:05:37;3.13;;;2.57;;
5869;SDS011;2961;47.702;9.410;2022-09-09T05:08:05;2.90;;;2.70;;
5869;SDS011;2961;47.702;9.410;2022-09-09T05:10:34;2.30;;;2.20;;
5869;SDS011;2961;47.702;9.410;2022-09-09T05:13:03;3.93;;;3.27;;
5869;SDS011;2961;47.702;9.410;2022-09-09T05:15:30;7.70;;;4.70;;
5869;SDS011;2961;47.702;9.410;2022-09-09T05:17:58;10.43;;;3.00;;
5869;SDS011;2961;47.702;9.410;2022-09-09T05:20:25;5.10;;;3.20;;
5869;SDS011;2961;47.702;9.410;2022-09-09T05:22:53;8.47;;;3.87;;
5869;SDS011;2961;47.702;9.410;2022-09-09T05:25:19;5.43;;;2.50;;
5869;SDS011;2961;47.702;9.410;2022-09-09T05:27:47;4.20;;;2.93;;
5869;SDS011;2961;47.702;9.410;2022-09-09T05:30:14;7.30;;;3.43;;
5869;SDS011;2961;47.702;9.410;2022-09-09T05:32:41;4.40;;;3.30;;
5869;SDS011;2961;47.702;9.410;2022-09-09T05:35:09;5.33;;;2.30;;
5869;SDS011;2961;47.702;9.410;2022-09-09T05:37:36;5.70;;;3.27;;
5869;SDS011;2961;47.702;9.410;2022-09-09T05:40:03;10.50;;;3.30;;
5869;SDS011;2961;47.702;9.410;2022-09-09T05:42:31;6.40;;;3.30;;
5869;SDS011;2961;47.702;9.410;2022-09-09T05:44:58;3.43;;;3.13;;
5869;SDS011;2961;47.702;9.410;2022-09-09T05:47:24;4.37;;;3.57;;
5869;SDS011;2961;47.702;9.410;2022-09-09T05:49:52;6.27;;;2.60;;
5869;SDS011;2961;47.702;9.410;2022-09-09T05:52:21;9.40;;;4.30;;
5869;SDS011;2961;47.702;9.410;2022-09-09T05:54:48;4.77;;;3.60;;
5869;SDS011;2961;47.702;9.410;2022-09-09T05:57:15;3.97;;;3.40;;
5869;SDS011;2961;47.702;9.410;2022-09-09T05:59:42;6.47;;;3.70;;
5869;SDS011;2961;47.702;9.410;2022-09-09T06:02:09;3.73;;;3.33;;
5869;SDS011;2961;47.702;9.410;2022-09-09T06:04:36;8.40;;;3.80;;
5869;SDS011;2961;47.702;9.410;2022-09-09T06:07:03;4.67;;;3.37;;
5869;SDS011;2961;47.702;9.410;2022-09-09T06:09:33;4.60;;;3.60;;
5869;SDS011;2961;47.702;9.410;2022-09-09T06:12:00;7.00;;;4.20;;
5869;SDS011;2961;47.702;9.410;2022-09-09T06:14:27;4.63;;;3.33;;
5869;SDS011;2961;47.702;9.410;2022-09-09T06:16:53;8.93;;;3.80;;
5869;SDS011;2961;47.702;9.410;2022-09-09T06:19:21;6.40;;;4.20;;
5869;SDS011;2961;47.702;9.410;2022-09-09T06:21:49;7.37;;;3.30;;
5869;SDS011;2961;47.702;9.410;2022-09-09T06:24:16;6.50;;;3.60;;
5869;SDS011;2961;47.702;9.410;2022-09-09T06:26:45;3.53;;;2.97;;
5869;SDS011;2961;47.702;9.410;2022-09-09T06:29:12;7.10;;;3.40;;
5869;SDS011;2961;47.702;9.410;2022-09-09T06:31:39;4.83;;;3.37;;
5869;SDS011;2961;47.702;9.410;2022-09-09T06:34:07;5.83;;;2.97;;
5869;SDS011;2961;47.702;9.410;2022-09-09T06:36:34;8.40;;;4.10;;
5869;SDS011;2961;47.702;9.410;2022-09-09T06:39:03;4.17;;;3.83;;
5869;SDS011;2961;47.702;9.410;2022-09-09T06:41:30;4.77;;;3.93;;
5869;SDS011;2961;47.702;9.410;2022-09-09T06:43:59;5.83;;;3.10;;
5869;SDS011;2961;47.702;9.410;2022-09-09T06:46:27;9.53;;;4.13;;
5869;SDS011;2961;47.702;9.410;2022-09-09T06:48:55;3.87;;;3.57;;
5869;SDS011;2961;47.702;9.410;2022-09-09T06:51:27;7.83;;;3.40;;
5869;SDS011;2961;47.702;9.410;2022-09-09T06:53:55;5.73;;;3.50;;
5869;SDS011;2961;47.702;9.410;2022-09-09T06:56:23;4.30;;;3.90;;
5869;SDS011;2961;47.702;9.410;2022-09-09T06:58:53;8.83;;;3.80;;
5869;SDS011;2961;47.702;9.410;2022-09-09T07:01:23;5.72;;;4.35;;
5869;SDS011;2961;47.702;9.410;2022-09-09T07:03:52;5.10;;;3.43;;
5869;SDS011;2961;47.702;9.410;2022-09-09T07:06:20;5.03;;;3.37;;
5869;SDS011;2961;47.702;9.410;2022-09-09T07:08:49;7.10;;;3.60;;
5869;SDS011;2961;47.702;9.410;2022-09-09T07:11:16;2.87;;;2.33;;
5869;SDS011;2961;47.702;9.410;2022-09-09T07:13:44;5.87;;;2.93;;
5869;SDS011;2961;47.702;9.410;2022-09-09T07:16:11;3.30;;;2.27;;
5869;SDS011;2961;47.702;9.410;2022-09-09T07:18:40;5.27;;;3.00;;
5869;SDS011;2961;47.702;9.410;2022-09-09T07:21:09;3.47;;;2.27;;
5869;SDS011;2961;47.702;9.410;2022-09-09T07:23:36;2.40;;;2.20;;
5869;SDS011;2961;47.702;9.410;2022-09-09T07:26:07;4.33;;;2.73;;
5869;SDS011;2961;47.702;9.410;2022-09-09T07:28:35;2.53;;;2.30;;
5869;SDS011;2961;47.702;9.410;2022-09-09T07:31:02;3.70;;;2.10;;
5869;SDS011;2961;47.702;9.410;2022-09-09T07:33:30;2.10;;;2.00;;
5869;SDS011;2961;47.702;9.410;2022-09-09T07:36:03;4.53;;;2.80;;
5869;SDS011;2961;47.702;9.410;2022-09-09T07:38:32;2.90;;;2.30;;
5869;SDS011;2961;47.702;9.410;2022-09-09T07:41:03;3.20;;;2.83;;
5869;SDS011;2961;47.702;9.410;2022-09-09T07:43:31;2.87;;;2.37;;
5869;SDS011;2961;47.702;9.410;2022-09-09T07:45:59;3.13;;;2.23;;
5869;SDS011;2961;47.702;9.410;2022-09-09T07:48:27;2.20;;;2.10;;
5869;SDS011;2961;47.702;9.410;2022-09-09T07:51:03;2.17;;;2.07;;
5869;SDS011;2961;47.702;9.410;2022-09-09T07:53:32;3.13;;;2.50;;
5869;SDS011;2961;47.702;9.410;2022-09-09T07:56:04;9.10;;;2.40;;
5869;SDS011;2961;47.702;9.410;2022-09-09T07:58:32;3.40;;;1.77;;
5869;SDS011;2961;47.702;9.410;2022-09-09T08:00:59;3.53;;;2.00;;
5869;SDS011;2961;47.702;9.410;2022-09-09T08:03:26;4.57;;;1.77;;
5869;SDS011;2961;47.702;9.410;2022-09-09T08:05:54;3.80;;;1.40;;
5869;SDS011;2961;47.702;9.410;2022-09-09T08:08:28;2.00;;;1.37;;
5869;SDS011;2961;47.702;9.410;2022-09-09T08:11:01;3.90;;;1.40;;
5869;SDS011;2961;47.702;9.410;2022-09-09T08:13:29;2.13;;;1.33;;
5869;SDS011;2961;47.702;9.410;2022-09-09T08:16:03;3.00;;;1.20;;
5869;SDS011;2961;47.702;9.410;2022-09-09T08:18:31;4.90;;;1.27;;
5869;SDS011;2961;47.702;9.410;2022-09-09T08:21:04;2.97;;;1.53;;
5869;SDS011;2961;47.702;9.410;2022-09-09T08:23:34;3.57;;;1.20;;
5869;SDS011;2961;47.702;9.410;2022-09-09T08:26:05;2.90;;;1.13;;
5869;SDS011;2961;47.702;9.410;2022-09-09T08:28:34;4.00;;;1.53;;
5869;SDS011;2961;47.702;9.410;2022-09-09T08:31:04;1.30;;;0.90;;
5869;SDS011;2961;47.702;9.410;2022-09-09T08:33:35;2.20;;;1.23;;
5869;SDS011;2961;47.702;9.410;2022-09-09T08:36:04;2.00;;;1.07;;
5869;SDS011;2961;47.702;9.410;2022-09-09T08:38:32;4.00;;;1.43;;
5869;SDS011;2961;47.702;9.410;2022-09-09T08:41:04;4.27;;;1.87;;
5869;SDS011;2961;47.702;9.410;2022-09-09T08:43:40;2.83;;;1.33;;
5869;SDS011;2961;47.702;9.410;2022-09-09T08:46:13;1.90;;;1.10;;
5869;SDS011;2961;47.702;9.410;2022-09-09T08:48:48;3.70;;;1.27;;
5869;SDS011;2961;47.702;9.410;2022-09-09T08:51:21;2.10;;;1.40;;
5869;SDS011;2961;47.702;9.410;2022-09-09T08:53:52;1.33;;;1.30;;
5869;SDS011;2961;47.702;9.410;2022-09-09T08:56:23;2.50;;;0.90;;
5869;SDS011;2961;47.702;9.410;2022-09-09T08:58:52;3.37;;;1.23;;
5869;SDS011;2961;47.702;9.410;2022-09-09T09:01:26;1.53;;;0.93;;
5869;SDS011;2961;47.702;9.410;2022-09-09T09:04:18;1.90;;;0.97;;
5869;SDS011;2961;47.702;9.410;2022-09-09T09:07:04;1.23;;;0.80;;
5869;SDS011;2961;47.702;9.410;2022-09-09T09:09:40;3.70;;;1.33;;
5869;SDS011;2961;47.702;9.410;2022-09-09T09:12:16;4.63;;;1.37;;
5869;SDS011;2961;47.702;9.410;2022-09-09T09:14:46;1.50;;;0.80;;
5869;SDS011;2961;47.702;9.410;2022-09-09T09:17:14;1.13;;;1.07;;
5869;SDS011;2961;47.702;9.410;2022-09-09T09:19:44;5.40;;;2.10;;
5869;SDS011;2961;47.702;9.410;2022-09-09T09:22:14;2.53;;;1.07;;
5869;SDS011;2961;47.702;9.410;2022-09-09T09:24:47;4.13;;;1.27;;
5869;SDS011;2961;47.702;9.410;2022-09-09T09:27:21;1.20;;;1.10;;
5869;SDS011;2961;47.702;9.410;2022-09-09T09:29:56;3.27;;;1.00;;
5869;SDS011;2961;47.702;9.410;2022-09-09T09:32:25;3.70;;;0.90;;
5869;SDS011;2961;47.702;9.410;2022-09-09T09:34:56;1.40;;;1.10;;
5869;SDS011;2961;47.702;9.410;2022-09-09T09:37:26;1.53;;;1.00;;
5869;SDS011;2961;47.702;9.410;2022-09-09T09:39:56;4.83;;;1.13;;
5869;SDS011;2961;47.702;9.410;2022-09-09T09:42:35;3.10;;;0.70;;
5869;SDS011;2961;47.702;9.410;2022-09-09T09:45:07;2.10;;;1.03;;
5869;SDS011;2961;47.702;9.410;2022-09-09T09:47:35;3.70;;;1.43;;
5869;SDS011;2961;47.702;9.410;2022-09-09T09:50:02;2.07;;;1.20;;
5869;SDS011;2961;47.702;9.410;2022-09-09T09:52:30;4.90;;;1.40;;
5869;SDS011;2961;47.702;9.410;2022-09-09T09:54:59;1.07;;;1.00;;
5869;SDS011;2961;47.702;9.410;2022-09-09T09:57:32;4.20;;;1.20;;
5869;SDS011;2961;47.702;9.410;2022-09-09T10:00:02;3.23;;;0.97;;
5869;SDS011;2961;47.702;9.410;2022-09-09T10:02:37;2.10;;;1.23;;
5869;SDS011;2961;47.702;9.410;2022-09-09T10:05:06;3.77;;;1.20;;
5869;SDS011;2961;47.702;9.410;2022-09-09T10:07:40;2.53;;;0.70;;
5869;SDS011;2961;47.702;9.410;2022-09-09T10:10:09;5.03;;;1.40;;
5869;SDS011;2961;47.702;9.410;2022-09-09T10:12:43;3.27;;;1.20;;
5869;SDS011;2961;47.702;9.410;2022-09-09T10:15:24;1.40;;;1.20;;
5869;SDS011;2961;47.702;9.410;2022-09-09T10:17:59;1.63;;;1.07;;
5869;SDS011;2961;47.702;9.410;2022-09-09T10:20:41;1.63;;;0.90;;
5869;SDS011;2961;47.702;9.410;2022-09-09T10:23:36;2.77;;;0.90;;
5869;SDS011;2961;47.702;9.410;2022-09-09T10:26:17;4.23;;;1.10;;
5869;SDS011;2961;47.702;9.410;2022-09-09T10:29:01;3.70;;;1.30;;
5869;SDS011;2961;47.702;9.410;2022-09-09T10:31:54;4.22;;;1.50;;
5869;SDS011;2961;47.702;9.410;2022-09-09T10:34:47;4.33;;;1.40;;
5869;SDS011;2961;47.702;9.410;2022-09-09T10:37:27;6.50;;;1.63;;
5869;SDS011;2961;47.702;9.410;2022-09-09T10:40:14;3.50;;;1.23;;
5869;SDS011;2961;47.702;9.410;2022-09-09T10:42:49;1.60;;;1.10;;
5869;SDS011;2961;47.702;9.410;2022-09-09T10:45:17;5.90;;;1.37;;
5869;SDS011;2961;47.702;9.410;2022-09-09T10:47:52;1.00;;;0.90;;
5869;SDS011;2961;47.702;9.410;2022-09-09T10:50:29;2.00;;;1.27;;
5869;SDS011;2961;47.702;9.410;2022-09-09T10:53:13;2.60;;;0.70;;
5869;SDS011;2961;47.702;9.410;2022-09-09T10:55:43;2.40;;;1.00;;
5869;SDS011;2961;47.702;9.410;2022-09-09T10:58:15;2.27;;;1.10;;
5869;SDS011;2961;47.702;9.410;2022-09-09T11:00:46;4.03;;;1.30;;
5869;SDS011;2961;47.702;9.410;2022-09-09T11:03:18;0.63;;;0.50;;
5869;SDS011;2961;47.702;9.410;2022-09-09T11:05:49;1.40;;;0.80;;
5869;SDS011;2961;47.702;9.410;2022-09-09T11:08:21;4.60;;;1.07;;
5869;SDS011;2961;47.702;9.410;2022-09-09T11:10:52;1.13;;;1.00;;
5869;SDS011;2961;47.702;9.410;2022-09-09T11:13:26;2.30;;;1.27;;
5869;SDS011;2961;47.702;9.410;2022-09-09T11:16:00;2.00;;;0.90;;
5869;SDS011;2961;47.702;9.410;2022-09-09T11:18:32;7.67;;;1.33;;
5869;SDS011;2961;47.702;9.410;2022-09-09T11:21:05;6.27;;;1.30;;
5869;SDS011;2961;47.702;9.410;2022-09-09T11:23:43;3.37;;;1.00;;
5869;SDS011;2961;47.702;9.410;2022-09-09T11:26:15;1.90;;;1.23;;
5869;SDS011;2961;47.702;9.410;2022-09-09T11:28:50;1.63;;;1.20;;
5869;SDS011;2961;47.702;9.410;2022-09-09T11:31:33;1.10;;;1.00;;
5869;SDS011;2961;47.702;9.410;2022-09-09T11:34:19;4.03;;;1.37;;
5869;SDS011;2961;47.702;9.410;2022-09-09T11:37:07;7.67;;;1.70;;
5869;SDS011;2961;47.702;9.410;2022-09-09T11:40:00;3.27;;;1.23;;
5869;SDS011;2961;47.702;9.410;2022-09-09T11:42:39;2.83;;;1.50;;
5869;SDS011;2961;47.702;9.410;2022-09-09T11:45:15;1.50;;;1.40;;
5869;SDS011;2961;47.702;9.410;2022-09-09T11:47:51;1.50;;;1.40;;
5869;SDS011;2961;47.702;9.410;2022-09-09T11:53:19;2.70;;;1.80;;
5869;SDS011;2961;47.702;9.410;2022-09-09T11:55:48;6.37;;;1.93;;
5869;SDS011;2961;47.702;9.410;2022-09-09T11:58:31;3.13;;;1.17;;
5869;SDS011;2961;47.702;9.410;2022-09-09T12:01:12;3.47;;;1.13;;
5869;SDS011;2961;47.702;9.410;2022-09-09T12:03:41;4.73;;;1.20;;
5869;SDS011;2961;47.702;9.410;2022-09-09T12:06:13;2.77;;;1.40;;
5869;SDS011;2961;47.702;9.410;2022-09-09T12:08:43;4.47;;;1.10;;
5869;SDS011;2961;47.702;9.410;2022-09-09T12:11:22;3.90;;;1.50;;
5869;SDS011;2961;47.702;9.410;2022-09-09T12:13:52;2.50;;;1.30;;
5869;SDS011;2961;47.702;9.410;2022-09-09T12:16:30;2.40;;;0.90;;
5869;SDS011;2961;47.702;9.410;2022-09-09T12:19:06;2.63;;;1.30;;
5869;SDS011;2961;47.702;9.410;2022-09-09T12:21:43;1.90;;;1.00;;
5869;SDS011;2961;47.702;9.410;2022-09-09T12:24:16;3.90;;;1.47;;
5869;SDS011;2961;47.702;9.410;2022-09-09T12:26:51;2.50;;;1.10;;
5869;SDS011;2961;47.702;9.410;2022-09-09T12:29:24;3.80;;;1.17;;
5869;SDS011;2961;47.702;9.410;2022-09-09T12:31:59;4.57;;;1.83;;
5869;SDS011;2961;47.702;9.410;2022-09-09T12:34:32;3.50;;;0.93;;
5869;SDS011;2961;47.702;9.410;2022-09-09T12:37:06;4.30;;;1.10;;
5869;SDS011;2961;47.702;9.410;2022-09-09T12:39:44;3.50;;;1.13;;
5869;SDS011;2961;47.702;9.410;2022-09-09T12:42:16;1.00;;;1.00;;
5869;SDS011;2961;47.702;9.410;2022-09-09T12:44:50;1.43;;;0.83;;
5869;SDS011;2961;47.702;9.410;2022-09-09T12:47:17;1.20;;;0.80;;
5869;SDS011;2961;47.702;9.410;2022-09-09T12:49:46;4.70;;;1.20;;
5869;SDS011;2961;47.702;9.410;2022-09-09T12:52:17;3.80;;;0.80;;
5869;SDS011;2961;47.702;9.410;2022-09-09T12:54:48;1.47;;;1.20;;
5869;SDS011;2961;47.702;9.410;2022-09-09T12:57:18;7.67;;;1.80;;
5869;SDS011;2961;47.702;9.410;2022-09-09T12:59:46;1.20;;;0.80;;
5869;SDS011;2961;47.702;9.410;2022-09-09T13:02:24;1.03;;;0.87;;
5869;SDS011;2961;47.702;9.410;2022-09-09T13:04:52;1.40;;;0.97;;
5869;SDS011;2961;47.702;9.410;2022-09-09T13:07:22;2.07;;;0.90;;
5869;SDS011;2961;47.702;9.410;2022-09-09T13:09:50;2.50;;;1.10;;
5869;SDS011;2961;47.702;9.410;2022-09-09T13:12:18;5.53;;;0.90;;
5869;SDS011;2961;47.702;9.410;2022-09-09T13:14:48;1.53;;;0.70;;
5869;SDS011;2961;47.702;9.410;2022-09-09T13:17:19;2.40;;;1.17;;
5869;SDS011;2961;47.702;9.410;2022-09-09T13:19:48;5.30;;;1.10;;
5869;SDS011;2961;47.702;9.410;2022-09-09T13:22:20;2.30;;;0.93;;
5869;SDS011;2961;47.702;9.410;2022-09-09T13:24:59;1.17;;;0.90;;
5869;SDS011;2961;47.702;9.410;2022-09-09T13:27:28;0.57;;;0.57;;
5869;SDS011;2961;47.702;9.410;2022-09-09T13:29:56;2.87;;;0.87;;
5869;SDS011;2961;47.702;9.410;2022-09-09T13:32:23;2.50;;;0.70;;
5869;SDS011;2961;47.702;9.410;2022-09-09T13:34:52;1.03;;;0.70;;
5869;SDS011;2961;47.702;9.410;2022-09-09T13:37:22;1.33;;;0.90;;
5869;SDS011;2961;47.702;9.410;2022-09-09T13:39:53;3.40;;;0.90;;
5869;SDS011;2961;47.702;9.410;2022-09-09T13:42:24;2.33;;;1.23;;
5869;SDS011;2961;47.702;9.410;2022-09-09T13:44:52;3.10;;;0.70;;
5869;SDS011;2961;47.702;9.410;2022-09-09T13:47:21;2.97;;;1.10;;
5869;SDS011;2961;47.702;9.410;2022-09-09T13:49:53;2.30;;;0.90;;
5869;SDS011;2961;47.702;9.410;2022-09-09T13:52:22;2.40;;;0.80;;
5869;SDS011;2961;47.702;9.410;2022-09-09T13:54:51;2.23;;;1.10;;
5869;SDS011;2961;47.702;9.410;2022-09-09T13:57:19;3.70;;;1.50;;
5869;SDS011;2961;47.702;9.410;2022-09-09T13:59:47;3.53;;;0.80;;
5869;SDS011;2961;47.702;9.410;2022-09-09T14:02:15;2.40;;;0.90;;
5869;SDS011;2961;47.702;9.410;2022-09-09T14:04:42;1.97;;;1.23;;
5869;SDS011;2961;47.702;9.410;2022-09-09T14:07:09;2.23;;;1.00;;
5869;SDS011;2961;47.702;9.410;2022-09-09T14:09:39;2.00;;;0.70;;
5869;SDS011;2961;47.702;9.410;2022-09-09T14:12:08;0.90;;;0.90;;
5869;SDS011;2961;47.702;9.410;2022-09-09T14:14:36;2.30;;;0.93;;
5869;SDS011;2961;47.702;9.410;2022-09-09T14:17:03;0.90;;;0.67;;
5869;SDS011;2961;47.702;9.410;2022-09-09T14:19:31;4.40;;;1.03;;
5869;SDS011;2961;47.702;9.410;2022-09-09T14:21:58;3.40;;;1.10;;
5869;SDS011;2961;47.702;9.410;2022-09-09T14:24:25;3.30;;;1.20;;
5869;SDS011;2961;47.702;9.410;2022-09-09T14:26:54;5.07;;;1.43;;
5869;SDS011;2961;47.702;9.410;2022-09-09T14:29:20;1.23;;;0.90;;
5869;SDS011;2961;47.702;9.410;2022-09-09T14:31:47;5.00;;;1.17;;
5869;SDS011;2961;47.702;9.410;2022-09-09T14:34:14;3.93;;;1.00;;
5869;SDS011;2961;47.702;9.410;2022-09-09T14:36:41;0.80;;;0.80;;
5869;SDS011;2961;47.702;9.410;2022-09-09T14:39:09;5.37;;;1.00;;
5869;SDS011;2961;47.702;9.410;2022-09-09T14:41:36;3.13;;;1.00;;
5869;SDS011;2961;47.702;9.410;2022-09-09T14:44:05;7.23;;;1.47;;
5869;SDS011;2961;47.702;9.410;2022-09-09T14:46:31;3.23;;;1.10;;
5869;SDS011;2961;47.702;9.410;2022-09-09T14:48:58;3.03;;;1.40;;
5869;SDS011;2961;47.702;9.410;2022-09-09T14:51:25;2.27;;;0.80;;
5869;SDS011;2961;47.702;9.410;2022-09-09T14:53:53;3.37;;;1.10;;
5869;SDS011;2961;47.702;9.410;2022-09-09T14:56:22;4.63;;;1.10;;
5869;SDS011;2961;47.702;9.410;2022-09-09T14:58:52;1.70;;;0.70;;
5869;SDS011;2961;47.702;9.410;2022-09-09T15:01:21;2.22;;;0.90;;
5869;SDS011;2961;47.702;9.410;2022-09-09T15:03:53;3.70;;;0.90;;
5869;SDS011;2961;47.702;9.410;2022-09-09T15:06:23;3.20;;;1.17;;
5869;SDS011;2961;47.702;9.410;2022-09-09T15:08:51;2.13;;;0.73;;
5869;SDS011;2961;47.702;9.410;2022-09-09T15:11:19;1.27;;;0.97;;
5869;SDS011;2961;47.702;9.410;2022-09-09T15:13:50;4.53;;;1.13;;
5869;SDS011;2961;47.702;9.410;2022-09-09T15:16:18;0.83;;;0.70;;
5869;SDS011;2961;47.702;9.410;2022-09-09T15:18:49;2.23;;;1.00;;
5869;SDS011;2961;47.702;9.410;2022-09-09T15:21:19;2.08;;;1.10;;
5869;SDS011;2961;47.702;9.410;2022-09-09T15:23:48;6.80;;;0.97;;
5869;SDS011;2961;47.702;9.410;2022-09-09T15:26:16;5.47;;;1.23;;
5869;SDS011;2961;47.702;9.410;2022-09-09T15:28:44;2.60;;;1.03;;
5869;SDS011;2961;47.702;9.410;2022-09-09T15:31:16;2.40;;;1.20;;
5869;SDS011;2961;47.702;9.410;2022-09-09T15:33:47;1.73;;;1.00;;
5869;SDS011;2961;47.702;9.410;2022-09-09T15:36:15;4.80;;;1.10;;
5869;SDS011;2961;47.702;9.410;2022-09-09T15:38:43;4.33;;;1.07;;
5869;SDS011;2961;47.702;9.410;2022-09-09T15:41:10;1.40;;;1.30;;
5869;SDS011;2961;47.702;9.410;2022-09-09T15:43:37;3.17;;;1.30;;